sensor_id;sensor_type;location;lat;lon;timestamp;P1;durP1;ratioP1;P2;durP2;ratioP2
17658;SDS011;8948;51.534;8.262;2023-05-10T00:04:33;4.72;;;3.70;;
17658;SDS011;8948;51.534;8.262;2023-05-10T00:09:34;8.57;;;3.75;;
17658;SDS011;8948;51.534;8.262;2023-05-10T00:14:34;5.47;;;4.18;;
17658;SDS011;8948;51.534;8.262;2023-05-10T00:19:35;10.13;;;4.10;;
17658;SDS011;8948;51.534;8.262;2023-05-10T00:24:35;5.03;;;3.17;;
17658;SDS011;8948;51.534;8.262;2023-05-10T00:34:58;2.83;;;2.10;;
17658;SDS011;8948;51.534;8.262;2023-05-10T00:39:59;2.63;;;1.95;;
17658;SDS011;8948;51.534;8.262;2023-05-10T00:45:00;6.40;;;4.30;;
17658;SDS011;8948;51.534;8.262;2023-05-10T00:50:00;8.35;;;4.75;;
17658;SDS011;8948;51.534;8.262;2023-05-10T00:55:01;8.85;;;4.20;;
17658;SDS011;8948;51.534;8.262;2023-05-10T01:00:03;4.38;;;3.17;;
17658;SDS011;8948;51.534;8.262;2023-05-10T01:05:04;7.43;;;2.50;;
17658;SDS011;8948;51.534;8.262;2023-05-10T01:10:06;5.50;;;3.35;;
17658;SDS011;8948;51.534;8.262;2023-05-10T01:15:07;3.50;;;2.58;;
17658;SDS011;8948;51.534;8.262;2023-05-10T01:20:09;3.10;;;2.63;;
17658;SDS011;8948;51.534;8.262;2023-05-10T01:36:27;3.65;;;2.28;;
17658;SDS011;8948;51.534;8.262;2023-05-10T01:47:10;4.50;;;2.00;;
17658;SDS011;8948;51.534;8.262;2023-05-10T01:52:15;3.05;;;2.03;;
17658;SDS011;8948;51.534;8.262;2023-05-10T01:57:19;2.67;;;1.90;;
17658;SDS011;8948;51.534;8.262;2023-05-10T02:02:22;2.40;;;2.20;;
17658;SDS011;8948;51.534;8.262;2023-05-10T02:07:24;2.47;;;2.00;;
17658;SDS011;8948;51.534;8.262;2023-05-10T02:12:26;1.40;;;1.30;;
17658;SDS011;8948;51.534;8.262;2023-05-10T02:17:30;2.00;;;1.90;;
17658;SDS011;8948;51.534;8.262;2023-05-10T02:22:32;2.42;;;1.92;;
17658;SDS011;8948;51.534;8.262;2023-05-10T02:27:34;2.72;;;2.38;;
17658;SDS011;8948;51.534;8.262;2023-05-10T02:32:36;4.03;;;2.58;;
17658;SDS011;8948;51.534;8.262;2023-05-10T02:37:38;3.60;;;2.70;;
17658;SDS011;8948;51.534;8.262;2023-05-10T02:42:40;4.65;;;3.00;;
17658;SDS011;8948;51.534;8.262;2023-05-10T02:47:43;3.70;;;3.00;;
17658;SDS011;8948;51.534;8.262;2023-05-10T02:52:47;5.78;;;2.90;;
17658;SDS011;8948;51.534;8.262;2023-05-10T02:57:59;3.05;;;2.75;;
17658;SDS011;8948;51.534;8.262;2023-05-10T03:03:01;4.45;;;2.58;;
17658;SDS011;8948;51.534;8.262;2023-05-10T03:08:02;6.93;;;3.45;;
17658;SDS011;8948;51.534;8.262;2023-05-10T03:13:12;6.28;;;4.47;;
17658;SDS011;8948;51.534;8.262;2023-05-10T03:19:25;4.65;;;3.30;;
17658;SDS011;8948;51.534;8.262;2023-05-10T03:23:58;7.90;;;4.50;;
17658;SDS011;8948;51.534;8.262;2023-05-10T03:29:03;6.72;;;4.63;;
17658;SDS011;8948;51.534;8.262;2023-05-10T03:34:05;5.65;;;3.92;;
17658;SDS011;8948;51.534;8.262;2023-05-10T03:39:06;5.45;;;4.25;;
17658;SDS011;8948;51.534;8.262;2023-05-10T03:44:07;4.35;;;3.50;;
17658;SDS011;8948;51.534;8.262;2023-05-10T03:49:07;6.57;;;5.05;;
17658;SDS011;8948;51.534;8.262;2023-05-10T03:54:08;5.03;;;4.13;;
17658;SDS011;8948;51.534;8.262;2023-05-10T03:59:15;7.18;;;4.45;;
17658;SDS011;8948;51.534;8.262;2023-05-10T04:04:17;7.63;;;3.50;;
17658;SDS011;8948;51.534;8.262;2023-05-10T04:09:18;6.07;;;3.30;;
17658;SDS011;8948;51.534;8.262;2023-05-10T04:14:19;5.53;;;3.90;;
17658;SDS011;8948;51.534;8.262;2023-05-10T04:19:19;5.03;;;3.55;;
17658;SDS011;8948;51.534;8.262;2023-05-10T04:24:20;5.80;;;3.78;;
17658;SDS011;8948;51.534;8.262;2023-05-10T04:29:20;5.32;;;3.53;;
17658;SDS011;8948;51.534;8.262;2023-05-10T04:34:21;2.85;;;2.45;;
17658;SDS011;8948;51.534;8.262;2023-05-10T04:39:22;3.00;;;2.30;;
17658;SDS011;8948;51.534;8.262;2023-05-10T04:44:22;2.30;;;1.80;;
17658;SDS011;8948;51.534;8.262;2023-05-10T04:49:23;3.17;;;1.92;;
17658;SDS011;8948;51.534;8.262;2023-05-10T04:54:24;3.47;;;1.80;;
17658;SDS011;8948;51.534;8.262;2023-05-10T04:59:24;3.45;;;1.65;;
17658;SDS011;8948;51.534;8.262;2023-05-10T05:04:25;2.42;;;1.85;;
17658;SDS011;8948;51.534;8.262;2023-05-10T05:09:26;2.85;;;2.13;;
17658;SDS011;8948;51.534;8.262;2023-05-10T05:14:26;2.22;;;2.03;;
17658;SDS011;8948;51.534;8.262;2023-05-10T05:19:27;7.57;;;2.63;;
17658;SDS011;8948;51.534;8.262;2023-05-10T05:24:27;5.85;;;3.33;;
17658;SDS011;8948;51.534;8.262;2023-05-10T05:29:28;6.25;;;3.75;;
17658;SDS011;8948;51.534;8.262;2023-05-10T05:34:29;5.70;;;4.05;;
17658;SDS011;8948;51.534;8.262;2023-05-10T05:39:29;6.00;;;3.85;;
17658;SDS011;8948;51.534;8.262;2023-05-10T05:44:30;7.50;;;4.38;;
17658;SDS011;8948;51.534;8.262;2023-05-10T05:49:30;7.53;;;4.45;;
17658;SDS011;8948;51.534;8.262;2023-05-10T05:54:31;7.65;;;4.47;;
17658;SDS011;8948;51.534;8.262;2023-05-10T05:59:32;7.65;;;5.22;;
17658;SDS011;8948;51.534;8.262;2023-05-10T06:04:33;9.80;;;5.22;;
17658;SDS011;8948;51.534;8.262;2023-05-10T06:09:33;14.80;;;6.43;;
17658;SDS011;8948;51.534;8.262;2023-05-10T06:14:34;13.77;;;7.65;;
17658;SDS011;8948;51.534;8.262;2023-05-10T06:19:34;14.82;;;8.77;;
17658;SDS011;8948;51.534;8.262;2023-05-10T06:24:35;16.33;;;9.95;;
17658;SDS011;8948;51.534;8.262;2023-05-10T06:29:36;17.35;;;11.98;;
17658;SDS011;8948;51.534;8.262;2023-05-10T06:34:36;19.33;;;12.20;;
17658;SDS011;8948;51.534;8.262;2023-05-10T06:39:37;17.65;;;11.55;;
17658;SDS011;8948;51.534;8.262;2023-05-10T06:44:37;17.15;;;10.98;;
17658;SDS011;8948;51.534;8.262;2023-05-10T06:49:38;19.17;;;10.88;;
17658;SDS011;8948;51.534;8.262;2023-05-10T06:54:38;14.35;;;9.80;;
17658;SDS011;8948;51.534;8.262;2023-05-10T06:59:39;12.50;;;7.97;;
17658;SDS011;8948;51.534;8.262;2023-05-10T07:04:40;11.02;;;7.32;;
17658;SDS011;8948;51.534;8.262;2023-05-10T07:09:40;10.35;;;7.15;;
17658;SDS011;8948;51.534;8.262;2023-05-10T07:14:41;19.23;;;11.52;;
17658;SDS011;8948;51.534;8.262;2023-05-10T07:19:42;22.48;;;13.45;;
17658;SDS011;8948;51.534;8.262;2023-05-10T07:24:43;27.83;;;16.30;;
17658;SDS011;8948;51.534;8.262;2023-05-10T07:29:44;28.05;;;17.40;;
17658;SDS011;8948;51.534;8.262;2023-05-10T07:34:44;23.08;;;14.93;;
17658;SDS011;8948;51.534;8.262;2023-05-10T07:39:45;22.90;;;15.52;;
17658;SDS011;8948;51.534;8.262;2023-05-10T07:44:45;28.80;;;16.75;;
17658;SDS011;8948;51.534;8.262;2023-05-10T07:49:47;29.63;;;19.42;;
17658;SDS011;8948;51.534;8.262;2023-05-10T07:54:47;32.75;;;20.88;;
17658;SDS011;8948;51.534;8.262;2023-05-10T07:59:48;29.58;;;18.27;;
17658;SDS011;8948;51.534;8.262;2023-05-10T08:04:48;29.08;;;18.67;;
17658;SDS011;8948;51.534;8.262;2023-05-10T08:09:49;29.13;;;19.05;;
17658;SDS011;8948;51.534;8.262;2023-05-10T08:14:49;27.20;;;17.65;;
17658;SDS011;8948;51.534;8.262;2023-05-10T08:19:50;39.33;;;19.85;;
17658;SDS011;8948;51.534;8.262;2023-05-10T08:24:51;30.10;;;18.52;;
17658;SDS011;8948;51.534;8.262;2023-05-10T08:29:52;33.95;;;19.75;;
17658;SDS011;8948;51.534;8.262;2023-05-10T08:34:52;34.53;;;19.40;;
17658;SDS011;8948;51.534;8.262;2023-05-10T08:39:53;33.72;;;18.25;;
17658;SDS011;8948;51.534;8.262;2023-05-10T08:44:53;34.53;;;18.13;;
17658;SDS011;8948;51.534;8.262;2023-05-10T08:49:55;31.92;;;18.13;;
17658;SDS011;8948;51.534;8.262;2023-05-10T08:54:58;32.33;;;17.70;;
17658;SDS011;8948;51.534;8.262;2023-05-10T08:59:59;31.98;;;19.17;;
17658;SDS011;8948;51.534;8.262;2023-05-10T09:05:01;24.52;;;15.45;;
17658;SDS011;8948;51.534;8.262;2023-05-10T09:10:02;24.85;;;13.98;;
17658;SDS011;8948;51.534;8.262;2023-05-10T09:15:05;21.70;;;12.07;;
17658;SDS011;8948;51.534;8.262;2023-05-10T09:20:07;21.25;;;13.98;;
17658;SDS011;8948;51.534;8.262;2023-05-10T09:25:12;19.35;;;12.80;;
17658;SDS011;8948;51.534;8.262;2023-05-10T09:30:15;21.05;;;11.82;;
17658;SDS011;8948;51.534;8.262;2023-05-10T09:35:17;21.55;;;14.35;;
17658;SDS011;8948;51.534;8.262;2023-05-10T09:40:21;23.95;;;14.23;;
17658;SDS011;8948;51.534;8.262;2023-05-10T09:45:24;22.30;;;13.38;;
17658;SDS011;8948;51.534;8.262;2023-05-10T09:50:26;21.83;;;12.30;;
17658;SDS011;8948;51.534;8.262;2023-05-10T09:55:40;21.02;;;12.00;;
17658;SDS011;8948;51.534;8.262;2023-05-10T10:00:46;20.58;;;11.82;;
17658;SDS011;8948;51.534;8.262;2023-05-10T10:05:47;16.55;;;11.13;;
17658;SDS011;8948;51.534;8.262;2023-05-10T10:10:48;13.93;;;8.93;;
17658;SDS011;8948;51.534;8.262;2023-05-10T10:15:49;21.05;;;11.75;;
17658;SDS011;8948;51.534;8.262;2023-05-10T10:20:52;15.13;;;9.70;;
17658;SDS011;8948;51.534;8.262;2023-05-10T10:25:54;15.00;;;9.48;;
17658;SDS011;8948;51.534;8.262;2023-05-10T10:30:55;18.40;;;9.70;;
17658;SDS011;8948;51.534;8.262;2023-05-10T10:36:02;14.55;;;8.75;;
17658;SDS011;8948;51.534;8.262;2023-05-10T10:41:08;12.82;;;7.75;;
17658;SDS011;8948;51.534;8.262;2023-05-10T10:51:16;13.55;;;7.72;;
17658;SDS011;8948;51.534;8.262;2023-05-10T10:56:17;13.50;;;7.63;;
17658;SDS011;8948;51.534;8.262;2023-05-10T11:01:23;13.65;;;8.52;;
17658;SDS011;8948;51.534;8.262;2023-05-10T11:06:32;18.25;;;10.25;;
17658;SDS011;8948;51.534;8.262;2023-05-10T11:11:34;18.00;;;9.88;;
17658;SDS011;8948;51.534;8.262;2023-05-10T11:16:42;17.17;;;9.50;;
17658;SDS011;8948;51.534;8.262;2023-05-10T11:21:44;17.92;;;9.52;;
17658;SDS011;8948;51.534;8.262;2023-05-10T11:26:49;21.65;;;12.13;;
17658;SDS011;8948;51.534;8.262;2023-05-10T11:31:51;24.23;;;12.63;;
17658;SDS011;8948;51.534;8.262;2023-05-10T11:36:52;16.17;;;10.30;;
17658;SDS011;8948;51.534;8.262;2023-05-10T11:41:54;16.58;;;10.52;;
17658;SDS011;8948;51.534;8.262;2023-05-10T11:46:57;17.25;;;10.93;;
17658;SDS011;8948;51.534;8.262;2023-05-10T11:52:05;19.17;;;10.63;;
17658;SDS011;8948;51.534;8.262;2023-05-10T11:57:07;21.85;;;12.82;;
17658;SDS011;8948;51.534;8.262;2023-05-10T12:02:07;24.83;;;11.93;;
17658;SDS011;8948;51.534;8.262;2023-05-10T12:07:08;22.77;;;12.13;;
17658;SDS011;8948;51.534;8.262;2023-05-10T12:12:09;20.77;;;11.52;;
17658;SDS011;8948;51.534;8.262;2023-05-10T12:17:13;29.45;;;13.30;;
17658;SDS011;8948;51.534;8.262;2023-05-10T12:22:14;22.20;;;12.32;;
17658;SDS011;8948;51.534;8.262;2023-05-10T12:27:14;24.05;;;11.23;;
17658;SDS011;8948;51.534;8.262;2023-05-10T12:32:15;19.95;;;12.32;;
17658;SDS011;8948;51.534;8.262;2023-05-10T12:37:15;15.68;;;9.30;;
17658;SDS011;8948;51.534;8.262;2023-05-10T12:42:16;17.13;;;10.25;;
17658;SDS011;8948;51.534;8.262;2023-05-10T12:47:17;13.30;;;8.20;;
17658;SDS011;8948;51.534;8.262;2023-05-10T12:52:17;10.00;;;6.07;;
17658;SDS011;8948;51.534;8.262;2023-05-10T12:57:18;12.38;;;7.72;;
17658;SDS011;8948;51.534;8.262;2023-05-10T13:02:20;16.33;;;7.75;;
17658;SDS011;8948;51.534;8.262;2023-05-10T13:07:22;19.20;;;8.90;;
17658;SDS011;8948;51.534;8.262;2023-05-10T13:12:23;19.05;;;9.70;;
17658;SDS011;8948;51.534;8.262;2023-05-10T13:17:25;18.38;;;9.02;;
17658;SDS011;8948;51.534;8.262;2023-05-10T13:22:26;18.25;;;10.05;;
17658;SDS011;8948;51.534;8.262;2023-05-10T13:27:26;24.65;;;11.52;;
17658;SDS011;8948;51.534;8.262;2023-05-10T13:32:27;28.08;;;14.20;;
17658;SDS011;8948;51.534;8.262;2023-05-10T13:37:27;25.83;;;14.45;;
17658;SDS011;8948;51.534;8.262;2023-05-10T13:42:29;20.40;;;12.27;;
17658;SDS011;8948;51.534;8.262;2023-05-10T13:47:29;25.60;;;12.40;;
17658;SDS011;8948;51.534;8.262;2023-05-10T13:52:30;16.60;;;10.02;;
17658;SDS011;8948;51.534;8.262;2023-05-10T13:57:31;20.10;;;9.43;;
17658;SDS011;8948;51.534;8.262;2023-05-10T14:02:32;14.25;;;8.82;;
17658;SDS011;8948;51.534;8.262;2023-05-10T14:07:32;14.95;;;9.32;;
17658;SDS011;8948;51.534;8.262;2023-05-10T14:12:33;13.10;;;8.02;;
17658;SDS011;8948;51.534;8.262;2023-05-10T14:17:33;15.25;;;8.25;;
17658;SDS011;8948;51.534;8.262;2023-05-10T14:22:34;17.38;;;9.77;;
17658;SDS011;8948;51.534;8.262;2023-05-10T14:27:35;13.80;;;9.07;;
17658;SDS011;8948;51.534;8.262;2023-05-10T14:32:36;14.63;;;9.50;;
17658;SDS011;8948;51.534;8.262;2023-05-10T14:37:37;15.90;;;9.48;;
17658;SDS011;8948;51.534;8.262;2023-05-10T14:42:37;15.15;;;9.50;;
17658;SDS011;8948;51.534;8.262;2023-05-10T14:47:38;14.70;;;9.40;;
17658;SDS011;8948;51.534;8.262;2023-05-10T14:52:38;13.88;;;9.13;;
17658;SDS011;8948;51.534;8.262;2023-05-10T14:57:39;14.48;;;8.00;;
17658;SDS011;8948;51.534;8.262;2023-05-10T15:02:39;13.77;;;8.48;;
17658;SDS011;8948;51.534;8.262;2023-05-10T15:07:40;15.93;;;8.98;;
17658;SDS011;8948;51.534;8.262;2023-05-10T15:12:43;13.60;;;7.28;;
17658;SDS011;8948;51.534;8.262;2023-05-10T15:17:44;15.82;;;7.18;;
17658;SDS011;8948;51.534;8.262;2023-05-10T15:22:44;11.55;;;6.72;;
17658;SDS011;8948;51.534;8.262;2023-05-10T15:27:45;11.52;;;6.22;;
17658;SDS011;8948;51.534;8.262;2023-05-10T15:32:45;10.13;;;7.15;;
17658;SDS011;8948;51.534;8.262;2023-05-10T15:37:47;13.88;;;6.50;;
17658;SDS011;8948;51.534;8.262;2023-05-10T15:42:48;14.45;;;6.93;;
17658;SDS011;8948;51.534;8.262;2023-05-10T15:47:49;11.82;;;7.78;;
17658;SDS011;8948;51.534;8.262;2023-05-10T15:52:49;15.05;;;9.40;;
17658;SDS011;8948;51.534;8.262;2023-05-10T15:57:51;16.80;;;9.93;;
17658;SDS011;8948;51.534;8.262;2023-05-10T16:02:52;12.52;;;8.50;;
17658;SDS011;8948;51.534;8.262;2023-05-10T16:07:53;13.82;;;8.35;;
17658;SDS011;8948;51.534;8.262;2023-05-10T16:12:54;15.07;;;8.90;;
17658;SDS011;8948;51.534;8.262;2023-05-10T16:17:54;17.35;;;8.07;;
17658;SDS011;8948;51.534;8.262;2023-05-10T16:22:55;15.07;;;9.38;;
17658;SDS011;8948;51.534;8.262;2023-05-10T16:27:56;13.27;;;9.00;;
17658;SDS011;8948;51.534;8.262;2023-05-10T16:32:57;13.95;;;9.48;;
17658;SDS011;8948;51.534;8.262;2023-05-10T16:37:59;18.55;;;10.35;;
17658;SDS011;8948;51.534;8.262;2023-05-10T16:43:00;19.23;;;9.98;;
17658;SDS011;8948;51.534;8.262;2023-05-10T16:48:00;17.95;;;10.27;;
17658;SDS011;8948;51.534;8.262;2023-05-10T16:53:01;20.90;;;9.52;;
17658;SDS011;8948;51.534;8.262;2023-05-10T16:58:02;13.95;;;8.98;;
17658;SDS011;8948;51.534;8.262;2023-05-10T17:03:02;21.88;;;10.43;;
17658;SDS011;8948;51.534;8.262;2023-05-10T17:08:03;14.55;;;9.48;;
17658;SDS011;8948;51.534;8.262;2023-05-10T17:13:03;15.23;;;8.55;;
17658;SDS011;8948;51.534;8.262;2023-05-10T17:18:04;25.08;;;9.63;;
17658;SDS011;8948;51.534;8.262;2023-05-10T17:23:06;13.40;;;7.90;;
17658;SDS011;8948;51.534;8.262;2023-05-10T17:28:06;13.25;;;8.75;;
17658;SDS011;8948;51.534;8.262;2023-05-10T17:33:07;18.27;;;8.77;;
17658;SDS011;8948;51.534;8.262;2023-05-10T17:38:08;17.33;;;9.00;;
17658;SDS011;8948;51.534;8.262;2023-05-10T17:43:08;13.63;;;8.43;;
17658;SDS011;8948;51.534;8.262;2023-05-10T17:48:09;17.30;;;9.93;;
17658;SDS011;8948;51.534;8.262;2023-05-10T17:53:10;15.93;;;10.25;;
17658;SDS011;8948;51.534;8.262;2023-05-10T17:58:10;15.30;;;9.38;;
17658;SDS011;8948;51.534;8.262;2023-05-10T18:03:11;15.13;;;9.38;;
17658;SDS011;8948;51.534;8.262;2023-05-10T18:08:12;16.48;;;9.55;;
17658;SDS011;8948;51.534;8.262;2023-05-10T18:13:13;21.08;;;13.73;;
17658;SDS011;8948;51.534;8.262;2023-05-10T18:18:13;34.20;;;20.45;;
17658;SDS011;8948;51.534;8.262;2023-05-10T18:23:14;21.17;;;13.85;;
17658;SDS011;8948;51.534;8.262;2023-05-10T18:28:15;32.33;;;18.13;;
17658;SDS011;8948;51.534;8.262;2023-05-10T18:33:15;16.05;;;10.93;;
17658;SDS011;8948;51.534;8.262;2023-05-10T18:38:16;20.42;;;10.38;;
17658;SDS011;8948;51.534;8.262;2023-05-10T18:43:17;19.17;;;10.73;;
17658;SDS011;8948;51.534;8.262;2023-05-10T18:48:17;17.90;;;10.48;;
17658;SDS011;8948;51.534;8.262;2023-05-10T18:53:18;18.17;;;10.90;;
17658;SDS011;8948;51.534;8.262;2023-05-10T18:58:18;15.93;;;10.38;;
17658;SDS011;8948;51.534;8.262;2023-05-10T19:03:19;18.60;;;9.95;;
17658;SDS011;8948;51.534;8.262;2023-05-10T19:08:21;15.48;;;10.07;;
17658;SDS011;8948;51.534;8.262;2023-05-10T19:13:22;18.38;;;10.20;;
17658;SDS011;8948;51.534;8.262;2023-05-10T19:18:23;16.92;;;10.38;;
17658;SDS011;8948;51.534;8.262;2023-05-10T19:23:24;15.23;;;11.10;;
17658;SDS011;8948;51.534;8.262;2023-05-10T19:28:24;16.25;;;10.45;;
17658;SDS011;8948;51.534;8.262;2023-05-10T19:33:25;19.05;;;9.68;;
17658;SDS011;8948;51.534;8.262;2023-05-10T19:38:26;23.40;;;11.77;;
17658;SDS011;8948;51.534;8.262;2023-05-10T19:43:28;18.88;;;11.95;;
17658;SDS011;8948;51.534;8.262;2023-05-10T19:48:29;22.80;;;12.00;;
17658;SDS011;8948;51.534;8.262;2023-05-10T19:53:31;19.88;;;11.50;;
17658;SDS011;8948;51.534;8.262;2023-05-10T19:58:32;23.40;;;12.35;;
17658;SDS011;8948;51.534;8.262;2023-05-10T20:03:33;19.80;;;12.45;;
17658;SDS011;8948;51.534;8.262;2023-05-10T20:08:34;18.80;;;11.95;;
17658;SDS011;8948;51.534;8.262;2023-05-10T20:13:35;19.55;;;11.35;;
17658;SDS011;8948;51.534;8.262;2023-05-10T20:18:35;18.55;;;10.77;;
17658;SDS011;8948;51.534;8.262;2023-05-10T20:23:37;16.38;;;10.45;;
17658;SDS011;8948;51.534;8.262;2023-05-10T20:28:37;17.52;;;10.82;;
17658;SDS011;8948;51.534;8.262;2023-05-10T20:33:38;20.23;;;12.13;;
17658;SDS011;8948;51.534;8.262;2023-05-10T20:38:38;21.08;;;12.63;;
17658;SDS011;8948;51.534;8.262;2023-05-10T20:43:39;21.63;;;13.98;;
17658;SDS011;8948;51.534;8.262;2023-05-10T20:48:40;26.27;;;14.95;;
17658;SDS011;8948;51.534;8.262;2023-05-10T20:53:40;22.08;;;13.73;;
17658;SDS011;8948;51.534;8.262;2023-05-10T20:58:41;19.25;;;13.63;;
17658;SDS011;8948;51.534;8.262;2023-05-10T21:03:41;21.73;;;14.48;;
17658;SDS011;8948;51.534;8.262;2023-05-10T21:08:42;23.08;;;14.85;;
17658;SDS011;8948;51.534;8.262;2023-05-10T21:13:42;28.60;;;16.25;;
17658;SDS011;8948;51.534;8.262;2023-05-10T21:18:43;22.35;;;15.95;;
17658;SDS011;8948;51.534;8.262;2023-05-10T21:23:46;26.35;;;16.92;;
17658;SDS011;8948;51.534;8.262;2023-05-10T21:28:47;23.23;;;15.68;;
17658;SDS011;8948;51.534;8.262;2023-05-10T21:33:47;24.85;;;15.30;;
17658;SDS011;8948;51.534;8.262;2023-05-10T21:38:48;24.90;;;15.95;;
17658;SDS011;8948;51.534;8.262;2023-05-10T21:43:49;23.30;;;15.93;;
17658;SDS011;8948;51.534;8.262;2023-05-10T21:48:50;25.60;;;15.77;;
17658;SDS011;8948;51.534;8.262;2023-05-10T21:53:50;21.85;;;14.13;;
17658;SDS011;8948;51.534;8.262;2023-05-10T21:58:51;22.90;;;15.10;;
17658;SDS011;8948;51.534;8.262;2023-05-10T22:03:52;23.85;;;15.35;;
17658;SDS011;8948;51.534;8.262;2023-05-10T22:08:52;23.70;;;14.23;;
17658;SDS011;8948;51.534;8.262;2023-05-10T22:13:53;24.30;;;15.85;;
17658;SDS011;8948;51.534;8.262;2023-05-10T22:18:53;21.60;;;14.35;;
17658;SDS011;8948;51.534;8.262;2023-05-10T22:23:54;21.85;;;14.95;;
17658;SDS011;8948;51.534;8.262;2023-05-10T22:28:55;25.95;;;16.27;;
17658;SDS011;8948;51.534;8.262;2023-05-10T22:33:55;22.25;;;13.25;;
17658;SDS011;8948;51.534;8.262;2023-05-10T22:38:56;21.63;;;13.40;;
17658;SDS011;8948;51.534;8.262;2023-05-10T22:43:56;22.75;;;12.35;;
17658;SDS011;8948;51.534;8.262;2023-05-10T22:48:57;19.73;;;13.23;;
17658;SDS011;8948;51.534;8.262;2023-05-10T22:53:58;23.20;;;13.50;;
17658;SDS011;8948;51.534;8.262;2023-05-10T22:58:59;18.25;;;13.45;;
17658;SDS011;8948;51.534;8.262;2023-05-10T23:03:59;19.35;;;12.63;;
17658;SDS011;8948;51.534;8.262;2023-05-10T23:09:00;22.10;;;13.70;;
17658;SDS011;8948;51.534;8.262;2023-05-10T23:14:00;21.02;;;13.13;;
17658;SDS011;8948;51.534;8.262;2023-05-10T23:19:01;22.60;;;12.90;;
17658;SDS011;8948;51.534;8.262;2023-05-10T23:24:01;19.80;;;14.05;;
17658;SDS011;8948;51.534;8.262;2023-05-10T23:29:02;22.13;;;14.38;;
17658;SDS011;8948;51.534;8.262;2023-05-10T23:34:02;22.52;;;14.60;;
17658;SDS011;8948;51.534;8.262;2023-05-10T23:39:03;21.75;;;13.82;;
17658;SDS011;8948;51.534;8.262;2023-05-10T23:44:04;25.02;;;14.60;;
17658;SDS011;8948;51.534;8.262;2023-05-10T23:49:05;23.20;;;15.35;;
17658;SDS011;8948;51.534;8.262;2023-05-10T23:54:05;25.20;;;14.20;;
17658;SDS011;8948;51.534;8.262;2023-05-10T23:59:06;22.95;;;14.65;;
